Alsea, Oregon
Current Conditions -  °F | °C
As of 11:15 PM on Saturday 25 Oct 2014 (Local Time) from KCVO Reporting Station
Few Clouds Few Clouds  
Wind Chill: 11°   Ceiling: Unl
Heat Index: 11°   Visibility: 10mi
Dew Point:   Wind: 12mph
Humidity: 82%   Direction: 170°S
Pressure: 29.97"   Gusts: NA
Location:  44.38°N, 123.6°W
Report Text: KCVO 260615Z AUTO 17010KT 10SM FEW070 11/08 A2997 RMK AO1
Loading
Personal Weather Stations






























Interactive Weather Map
Tropical Storm Tracking
New forecast layout! Learn more

10-Day Weather Forecast

Advertisements
Track Severe Weather on mobile